No particular awareness of the weather is required.    There are no Weather-warnings
 Banner
iom-flag.gif  iom-flag.gif


Ballaugh webcam more information Ballaugh webcam


Thunder radar more information blitzortung!


Rain radar more information rain snow radar


Visit our other weather sites:

Template documentation
and downloads

And another site



Nearby METAR Reports

   
EGNS - Isle Of Man/Rona, United Kingdom
Distance from station: SSW 16 mi
Updated: 15-09-2019 20:50
Few Clouds  
Few Clouds  
   Wind: WNW 2.3 mph
Wind: WNW 2.3 mph
Temperature: 11°C
Dew Point: 10°C
Humidity: 94%
Barometer: 1023 hPa
Clouds: Few Clouds
Visibility: More than 6 mi
Cloud details: Few Clouds 800 ft
EGNS 151950Z 29002KT 9999 FEW008 11/10 Q1023 NOSIG
EGAC - Belfast Harbour, United Kingdom
Distance from station: WNW 57 mi
Updated: 15-09-2019 20:50
Overcast  
Overcast  
   Wind: SSW 3.5 mph
Wind: SSW 3.5 mph
Temperature: 12°C
Dew Point: 10°C
Humidity: 88%
Barometer: 1023 hPa
Clouds: Overcast
Visibility: More than 6 mi
Cloud details: Few Clouds 2000 ft,
Overcast 2400 ft
EGAC 151950Z AUTO 20003KT 9999 FEW020/// OVC024/// 12/10 Q1023
EGAA - Belfast/Aldergro, United Kingdom
Distance from station: WNW 71 mi
Updated: 15-09-2019 20:50
Mostly Cloudy  
Mostly Cloudy  
   Wind: SE 3.5 mph
Wind: SE 3.5 mph
Temperature: 11°C
Dew Point: 9°C
Humidity: 88%
Barometer: 1023 hPa
Clouds: Mostly Cloudy
Visibility: More than 6 mi
Cloud details: Mostly Cloudy 1800 ft
EGAA 151950Z 13003KT 9999 BKN018 11/09 Q1023
EGNH - Blackpool Airpor, United Kingdom
Distance from station: ESE 73 mi
Updated: 15-09-2019 20:50
Light Rain, Drizzle, Mostly Cloudy  
Light Rain, Drizzle, Mostly Cloudy  
   Wind: NE 5.8 mph
Wind: NE 5.8 mph
Temperature: 12°C
Dew Point: 11°C
Humidity: 94%
Barometer: 1023 hPa
Clouds: Mostly Cloudy
Visibility: 3 mi
Cloud details: Mostly Cloudy 400 ft
EGNH 151950Z 04005KT 5000 -RADZ BKN004 12/11 Q1023
EGOV - Valley Raf, United Kingdom
Distance from station: S 73 mi
Updated: 15-09-2019 20:50
Light Rain, Mostly Cloudy  
Light Rain, Mostly Cloudy  
   Wind: East 6.9 mph
Wind: East 6.9 mph
Temperature: 12°C
Dew Point: 12°C
Humidity: 100%
Barometer: 1022 hPa
Clouds: Mostly Cloudy
Visibility: More than 6 mi
Cloud details: Few Clouds 800 ft,
Mostly Cloudy 4200 ft,
Mostly Cloudy 5000 ft
EGOV 151950Z AUTO 09006KT 9999 -RA FEW008/// BKN042/// BKN050/// 12/12 Q1022
EGPK - Prestwick(Civ/Na, United Kingdom
Distance from station: N 82 mi
Updated: 15-09-2019 20:50
Few Clouds  
Few Clouds  
   Wind: WNW 6.9 mph
Wind: WNW 6.9 mph
Temperature: 12°C
Dew Point: 9°C
Humidity: 82%
Barometer: 1023 hPa
Clouds: Few Clouds
Visibility: More than 6 mi
Cloud details: Few Clouds 3200 ft
EGPK 151950Z 30006KT 9999 FEW032 12/09 Q1023
EIDW - Dublin Airport, Ireland
Distance from station: SW 93 mi
Updated: 15-09-2019 21:00
Light Drizzle, Mostly Cloudy  
Light Drizzle, Mostly Cloudy  
   Wind: East 6.9 mph
Wind: East 6.9 mph
Temperature: 12°C
Dew Point: 12°C
Humidity: 100%
Barometer: 1023 hPa
Clouds: Mostly Cloudy
Visibility: 1 mi
Cloud details: Mostly Cloudy 200 ft,
Mostly Cloudy 400 ft
EIDW 152000Z 09006KT 2000 -DZ BKN002 BKN004 12/12 Q1023 NOSIG
EGGP - Liverpool Airpor, United Kingdom
Distance from station: SE 98 mi
Updated: 15-09-2019 20:50
Light Drizzle, Overcast  
Light Drizzle, Overcast  
   Wind: NNE 3.5 mph
Wind: NNE 3.5 mph
Temperature: 13°C
Dew Point: 13°C
Humidity: 100%
Barometer: 1023 hPa
Clouds: Overcast
Visibility: 5 mi
Cloud details: Partly Cloudy 900 ft,
Overcast 1400 ft
EGGP 151950Z 03003KT 8000 -DZ SCT009 OVC014 13/13 Q1023
EGPF - Glasgow Airport, United Kingdom
Distance from station: N 107 mi
Updated: 15-09-2019 20:50
Partly Cloudy  
Partly Cloudy  
   Wind: WSW 4.6 mph
Wind: WSW 4.6 mph
Temperature: 10°C
Wind Chill: 9°C
Dew Point: 7°C
Humidity: 82%
Barometer: 1022 hPa
Clouds: Partly Cloudy
Visibility: More than 6 mi
Cloud details: Partly Cloudy 4400 ft
EGPF 151950Z AUTO 25004KT 9999 SCT044 10/07 Q1022
EGCC - Manchester Intl, United Kingdom
Distance from station: SE 114 mi
Updated: 15-09-2019 20:50
Light Rain, Overcast  
Light Rain, Overcast  
   Wind: West 3.5 mph
Wind: West 3.5 mph
Temperature: 13°C
Dew Point: 12°C
Humidity: 94%
Barometer: 1023 hPa
Clouds: Overcast
Visibility: 4 mi
Cloud details: Overcast 400 ft
EGCC 151950Z 27003KT 7000 -RA OVC004 13/12 Q1023 TEMPO 4000 RA BKN008
EGNM - Leeds And Bradfo, United Kingdom
Distance from station: ESE 122 mi
Updated: 15-09-2019 20:50
Light Drizzle, Mostly Cloudy  
Light Drizzle, Mostly Cloudy  
   Wind: varies 1.2 mph
Wind: varies 1.2 mph
Temperature: 12°C
Dew Point: 9°C
Humidity: 82%
Barometer: 1023 hPa
Clouds: Mostly Cloudy
Visibility: More than 6 mi
Cloud details: Mostly Cloudy 2500 ft
EGNM 151950Z VRB01KT 9999 -DZ BKN025 12/09 Q1023
 

Script developed by  Saratoga-weather.org Adapted for the template by  Weerstation Leuven

You find our weather info also at:

UK Metoffice

WeatherCloud

WeatherlinkIP

Equipment we use:

Weather-station
Davis VP2

Weather-program
Weather Display

Weather-server
My Computer

Provider
Fasthosts

Davis VP2

Weather Display

My Computer

Fasthosts

 Banner1
iom-flag.gif  iom-flag.gif
Flag Counter 

Hits since site created in 2003